sensor_id;sensor_type;location;lat;lon;timestamp;pressure;altitude;pressure_sealevel;temperature;humidity
53041;BME280;39326;42.650;23.248;2022-10-16T00:01:10;93192.22;;;6.59;80.99
53041;BME280;39326;42.650;23.248;2022-10-16T00:03:37;93193.34;;;6.58;81.36
53041;BME280;39326;42.650;23.248;2022-10-16T00:06:04;93199.41;;;6.58;80.98
53041;BME280;39326;42.650;23.248;2022-10-16T00:08:31;93203.81;;;6.54;81.53
53041;BME280;39326;42.650;23.248;2022-10-16T00:13:30;93210.81;;;6.47;81.75
53041;BME280;39326;42.650;23.248;2022-10-16T00:15:57;93209.28;;;6.46;81.61
53041;BME280;39326;42.650;23.248;2022-10-16T00:18:23;93213.38;;;6.43;81.40
53041;BME280;39326;42.650;23.248;2022-10-16T00:20:49;93207.31;;;6.43;81.88
53041;BME280;39326;42.650;23.248;2022-10-16T00:23:15;93211.06;;;6.42;82.04
53041;BME280;39326;42.650;23.248;2022-10-16T00:25:41;93204.34;;;6.44;82.00
53041;BME280;39326;42.650;23.248;2022-10-16T00:28:06;93217.47;;;6.41;81.98
53041;BME280;39326;42.650;23.248;2022-10-16T00:30:32;93211.75;;;6.39;82.26
53041;BME280;39326;42.650;23.248;2022-10-16T00:32:58;93210.22;;;6.38;81.82
53041;BME280;39326;42.650;23.248;2022-10-16T00:35:24;93223.78;;;6.36;81.81
53041;BME280;39326;42.650;23.248;2022-10-16T00:37:51;93215.84;;;6.36;81.65
53041;BME280;39326;42.650;23.248;2022-10-16T00:40:17;93223.78;;;6.36;82.02
53041;BME280;39326;42.650;23.248;2022-10-16T00:42:43;93224.91;;;6.35;81.64
53041;BME280;39326;42.650;23.248;2022-10-16T00:45:10;93214.53;;;6.30;81.89
53041;BME280;39326;42.650;23.248;2022-10-16T00:47:42;93216.34;;;6.26;82.39
53041;BME280;39326;42.650;23.248;2022-10-16T00:50:18;93210.09;;;6.18;82.36
53041;BME280;39326;42.650;23.248;2022-10-16T00:52:49;93212.81;;;6.22;82.18
53041;BME280;39326;42.650;23.248;2022-10-16T00:55:16;93209.06;;;6.23;82.14
53041;BME280;39326;42.650;23.248;2022-10-16T00:57:43;93211.72;;;6.23;82.21
53041;BME280;39326;42.650;23.248;2022-10-16T01:00:12;93215.56;;;6.25;82.23
53041;BME280;39326;42.650;23.248;2022-10-16T01:02:39;93214.81;;;6.25;82.04
53041;BME280;39326;42.650;23.248;2022-10-16T01:05:05;93217.47;;;6.25;82.29
53041;BME280;39326;42.650;23.248;2022-10-16T01:12:59;93213.50;;;6.19;82.21
53041;BME280;39326;42.650;23.248;2022-10-16T01:21:37;93215.63;;;6.13;82.37
53041;BME280;39326;42.650;23.248;2022-10-16T01:24:17;93210.75;;;6.15;82.09
53041;BME280;39326;42.650;23.248;2022-10-16T01:27:14;93212.97;;;6.13;81.75
53041;BME280;39326;42.650;23.248;2022-10-16T01:29:48;93200.06;;;6.12;81.73
53041;BME280;39326;42.650;23.248;2022-10-16T01:32:28;93197.41;;;6.12;82.13
53041;BME280;39326;42.650;23.248;2022-10-16T01:37:40;93207.22;;;6.11;82.32
53041;BME280;39326;42.650;23.248;2022-10-16T01:40:12;93213.63;;;6.10;82.18
53041;BME280;39326;42.650;23.248;2022-10-16T01:42:42;93213.22;;;6.08;82.25
53041;BME280;39326;42.650;23.248;2022-10-16T01:45:12;93218.84;;;6.07;82.42
53041;BME280;39326;42.650;23.248;2022-10-16T01:47:39;93217.63;;;6.04;82.50
53041;BME280;39326;42.650;23.248;2022-10-16T01:50:08;93211.56;;;6.03;82.03
53041;BME280;39326;42.650;23.248;2022-10-16T01:52:42;93214.91;;;6.00;82.29
53041;BME280;39326;42.650;23.248;2022-10-16T01:55:10;93223.28;;;6.02;81.88
53041;BME280;39326;42.650;23.248;2022-10-16T01:57:41;93220.50;;;5.99;81.90
53041;BME280;39326;42.650;23.248;2022-10-16T02:00:12;93223.50;;;5.97;82.56
53041;BME280;39326;42.650;23.248;2022-10-16T02:02:41;93221.97;;;5.96;82.29
53041;BME280;39326;42.650;23.248;2022-10-16T02:05:16;93226.84;;;5.94;82.08
53041;BME280;39326;42.650;23.248;2022-10-16T02:07:45;93229.81;;;5.93;82.14
53041;BME280;39326;42.650;23.248;2022-10-16T02:10:11;93227.59;;;5.95;82.01
53041;BME280;39326;42.650;23.248;2022-10-16T02:12:40;93231.94;;;5.87;82.17
53041;BME280;39326;42.650;23.248;2022-10-16T02:15:08;93237.53;;;5.86;82.42
53041;BME280;39326;42.650;23.248;2022-10-16T02:17:34;93233.72;;;5.83;82.14
53041;BME280;39326;42.650;23.248;2022-10-16T02:20:00;93244.38;;;5.87;82.14
53041;BME280;39326;42.650;23.248;2022-10-16T02:22:32;93245.19;;;5.87;81.93
53041;BME280;39326;42.650;23.248;2022-10-16T02:25:05;93247.38;;;5.85;82.02
53041;BME280;39326;42.650;23.248;2022-10-16T02:30:15;93252.38;;;5.74;82.63
53041;BME280;39326;42.650;23.248;2022-10-16T02:32:46;93250.59;;;5.78;82.73
53041;BME280;39326;42.650;23.248;2022-10-16T02:35:13;93240.22;;;5.73;82.46
53041;BME280;39326;42.650;23.248;2022-10-16T02:37:41;93237.91;;;5.72;82.78
53041;BME280;39326;42.650;23.248;2022-10-16T02:40:08;93240.91;;;5.70;82.73
53041;BME280;39326;42.650;23.248;2022-10-16T02:42:36;93248.94;;;5.74;82.63
53041;BME280;39326;42.650;23.248;2022-10-16T02:45:04;93255.78;;;5.75;82.53
53041;BME280;39326;42.650;23.248;2022-10-16T02:47:30;93253.72;;;5.68;82.71
53041;BME280;39326;42.650;23.248;2022-10-16T02:49:56;93254.03;;;5.67;82.71
53041;BME280;39326;42.650;23.248;2022-10-16T02:52:21;93255.13;;;5.66;83.04
53041;BME280;39326;42.650;23.248;2022-10-16T02:54:47;93255.47;;;5.64;83.12
53041;BME280;39326;42.650;23.248;2022-10-16T02:57:13;93200.97;;;5.23;83.15
53041;BME280;39326;42.650;23.248;2022-10-16T02:59:39;93260.66;;;5.61;82.69
53041;BME280;39326;42.650;23.248;2022-10-16T03:02:05;93260.66;;;5.61;82.83
53041;BME280;39326;42.650;23.248;2022-10-16T03:04:31;93262.53;;;5.60;83.00
53041;BME280;39326;42.650;23.248;2022-10-16T03:06:57;93260.22;;;5.59;83.07
53041;BME280;39326;42.650;23.248;2022-10-16T03:09:22;93258.25;;;5.56;83.29
53041;BME280;39326;42.650;23.248;2022-10-16T03:11:48;93255.91;;;5.54;83.04
53041;BME280;39326;42.650;23.248;2022-10-16T03:14:14;93263.75;;;5.50;83.66
53041;BME280;39326;42.650;23.248;2022-10-16T03:16:40;93263.44;;;5.52;83.90
53041;BME280;39326;42.650;23.248;2022-10-16T03:19:06;93263.53;;;5.56;83.15
53041;BME280;39326;42.650;23.248;2022-10-16T03:21:33;93264.31;;;5.56;83.21
53041;BME280;39326;42.650;23.248;2022-10-16T03:23:59;93265.38;;;5.55;83.18
53041;BME280;39326;42.650;23.248;2022-10-16T03:26:25;93268.84;;;5.56;83.41
53041;BME280;39326;42.650;23.248;2022-10-16T03:28:50;93274.44;;;5.54;83.06
53041;BME280;39326;42.650;23.248;2022-10-16T03:31:16;93276.31;;;5.54;83.12
53041;BME280;39326;42.650;23.248;2022-10-16T03:33:42;93282.38;;;5.54;83.07
53041;BME280;39326;42.650;23.248;2022-10-16T03:36:08;93275.97;;;5.55;82.91
53041;BME280;39326;42.650;23.248;2022-10-16T03:38:33;93280.84;;;5.53;83.09
53041;BME280;39326;42.650;23.248;2022-10-16T03:40:59;93272.47;;;5.51;82.83
53041;BME280;39326;42.650;23.248;2022-10-16T03:43:25;93274.44;;;5.42;83.29
53041;BME280;39326;42.650;23.248;2022-10-16T03:45:51;93277.44;;;5.40;83.30
53041;BME280;39326;42.650;23.248;2022-10-16T03:48:18;93270.47;;;5.36;83.74
53041;BME280;39326;42.650;23.248;2022-10-16T03:50:44;93261.13;;;5.38;83.19
53041;BME280;39326;42.650;23.248;2022-10-16T03:53:10;93269.63;;;5.44;82.71
53041;BME280;39326;42.650;23.248;2022-10-16T03:55:35;93261.69;;;5.44;82.54
53041;BME280;39326;42.650;23.248;2022-10-16T03:58:01;93266.50;;;5.42;82.73
53041;BME280;39326;42.650;23.248;2022-10-16T04:00:27;93264.75;;;5.34;83.25
53041;BME280;39326;42.650;23.248;2022-10-16T04:02:54;93268.16;;;5.34;83.23
53041;BME280;39326;42.650;23.248;2022-10-16T04:05:20;93268.50;;;5.33;83.27
53041;BME280;39326;42.650;23.248;2022-10-16T04:07:46;93263.22;;;5.33;83.10
53041;BME280;39326;42.650;23.248;2022-10-16T04:10:12;93265.88;;;5.33;83.53
53041;BME280;39326;42.650;23.248;2022-10-16T04:12:38;93267.28;;;5.30;83.89
53041;BME280;39326;42.650;23.248;2022-10-16T04:15:04;93262.78;;;5.31;83.72
53041;BME280;39326;42.650;23.248;2022-10-16T04:17:29;93269.16;;;5.30;83.68
53041;BME280;39326;42.650;23.248;2022-10-16T04:19:55;93266.09;;;5.28;83.71
53041;BME280;39326;42.650;23.248;2022-10-16T04:22:21;93267.19;;;5.27;83.68
53041;BME280;39326;42.650;23.248;2022-10-16T04:24:47;93274.56;;;5.21;83.82
53041;BME280;39326;42.650;23.248;2022-10-16T04:27:13;93268.94;;;5.22;83.99
53041;BME280;39326;42.650;23.248;2022-10-16T04:29:39;93268.63;;;5.24;83.87
53041;BME280;39326;42.650;23.248;2022-10-16T04:32:06;93274.22;;;5.22;84.08
53041;BME280;39326;42.650;23.248;2022-10-16T04:34:33;93275.00;;;5.23;84.00
53041;BME280;39326;42.650;23.248;2022-10-16T04:37:00;93273.38;;;5.18;84.19
53041;BME280;39326;42.650;23.248;2022-10-16T04:39:25;93279.50;;;5.22;84.08
53041;BME280;39326;42.650;23.248;2022-10-16T04:41:51;93277.00;;;5.26;83.89
53041;BME280;39326;42.650;23.248;2022-10-16T04:44:18;93274.34;;;5.26;83.60
53041;BME280;39326;42.650;23.248;2022-10-16T04:46:44;93280.41;;;5.27;83.75
53041;BME280;39326;42.650;23.248;2022-10-16T04:49:10;93285.38;;;5.28;83.75
53041;BME280;39326;42.650;23.248;2022-10-16T04:51:36;93283.94;;;5.31;83.97
53041;BME280;39326;42.650;23.248;2022-10-16T04:54:02;93286.13;;;5.29;83.99
53041;BME280;39326;42.650;23.248;2022-10-16T04:56:27;93292.31;;;5.20;84.60
53041;BME280;39326;42.650;23.248;2022-10-16T04:58:53;93297.25;;;5.22;84.17
53041;BME280;39326;42.650;23.248;2022-10-16T05:01:20;93306.19;;;5.30;84.52
53041;BME280;39326;42.650;23.248;2022-10-16T05:03:45;93299.47;;;5.32;84.48
53041;BME280;39326;42.650;23.248;2022-10-16T05:06:11;93305.31;;;5.38;84.15
53041;BME280;39326;42.650;23.248;2022-10-16T05:08:37;93305.41;;;5.41;84.40
53041;BME280;39326;42.650;23.248;2022-10-16T05:11:03;93306.53;;;5.40;84.10
53041;BME280;39326;42.650;23.248;2022-10-16T05:13:29;93301.66;;;5.42;83.92
53041;BME280;39326;42.650;23.248;2022-10-16T05:15:55;93310.81;;;5.45;84.31
53041;BME280;39326;42.650;23.248;2022-10-16T05:18:21;93311.69;;;5.49;84.25
53041;BME280;39326;42.650;23.248;2022-10-16T05:20:46;93312.25;;;5.55;84.05
53041;BME280;39326;42.650;23.248;2022-10-16T05:23:12;93315.34;;;5.57;84.03
53041;BME280;39326;42.650;23.248;2022-10-16T05:25:38;93310.81;;;5.57;84.22
53041;BME280;39326;42.650;23.248;2022-10-16T05:28:04;93315.44;;;5.60;84.27
53041;BME280;39326;42.650;23.248;2022-10-16T05:30:30;93309.38;;;5.60;84.57
53041;BME280;39326;42.650;23.248;2022-10-16T05:32:55;93322.03;;;5.66;84.24
53041;BME280;39326;42.650;23.248;2022-10-16T05:35:21;93320.84;;;5.64;84.63
53041;BME280;39326;42.650;23.248;2022-10-16T05:37:47;93323.16;;;5.65;84.87
53041;BME280;39326;42.650;23.248;2022-10-16T05:40:14;93324.81;;;5.58;85.51
53041;BME280;39326;42.650;23.248;2022-10-16T05:42:40;93322.16;;;5.58;85.70
53041;BME280;39326;42.650;23.248;2022-10-16T05:45:06;93327.81;;;5.56;86.23
53041;BME280;39326;42.650;23.248;2022-10-16T05:47:32;93335.06;;;5.59;86.13
53041;BME280;39326;42.650;23.248;2022-10-16T05:49:57;93333.53;;;5.70;85.74
53041;BME280;39326;42.650;23.248;2022-10-16T05:52:23;93335.28;;;5.78;85.61
53041;BME280;39326;42.650;23.248;2022-10-16T05:54:48;93347.72;;;5.78;85.86
53041;BME280;39326;42.650;23.248;2022-10-16T05:57:14;93334.28;;;5.59;86.71
53041;BME280;39326;42.650;23.248;2022-10-16T05:59:40;93347.94;;;5.73;86.15
53041;BME280;39326;42.650;23.248;2022-10-16T06:02:05;93350.50;;;5.82;85.91
53041;BME280;39326;42.650;23.248;2022-10-16T06:04:31;93344.97;;;5.87;85.86
53041;BME280;39326;42.650;23.248;2022-10-16T06:06:59;93355.53;;;5.99;85.30
53041;BME280;39326;42.650;23.248;2022-10-16T06:09:27;93358.63;;;6.01;85.40
53041;BME280;39326;42.650;23.248;2022-10-16T06:11:53;93356.63;;;6.10;85.06
53041;BME280;39326;42.650;23.248;2022-10-16T06:14:19;93363.69;;;6.18;84.55
53041;BME280;39326;42.650;23.248;2022-10-16T06:16:44;93362.00;;;6.26;84.77
53041;BME280;39326;42.650;23.248;2022-10-16T06:19:10;93369.97;;;6.26;84.76
53041;BME280;39326;42.650;23.248;2022-10-16T06:21:35;93367.09;;;6.31;84.74
53041;BME280;39326;42.650;23.248;2022-10-16T06:24:01;93365.19;;;6.31;84.86
53041;BME280;39326;42.650;23.248;2022-10-16T06:26:28;93367.94;;;6.35;84.87
53041;BME280;39326;42.650;23.248;2022-10-16T06:28:55;93375.78;;;6.44;84.69
53041;BME280;39326;42.650;23.248;2022-10-16T06:31:21;93377.97;;;6.42;84.84
53041;BME280;39326;42.650;23.248;2022-10-16T06:33:50;93379.28;;;6.48;85.11
53041;BME280;39326;42.650;23.248;2022-10-16T06:36:17;93376.63;;;6.48;84.94
53041;BME280;39326;42.650;23.248;2022-10-16T06:38:44;93384.56;;;6.60;84.94
53041;BME280;39326;42.650;23.248;2022-10-16T06:41:12;93387.75;;;6.53;85.33
53041;BME280;39326;42.650;23.248;2022-10-16T06:43:38;93391.59;;;6.68;85.26
53041;BME280;39326;42.650;23.248;2022-10-16T06:46:05;93389.06;;;6.72;84.84
53041;BME280;39326;42.650;23.248;2022-10-16T06:48:33;93393.34;;;6.76;85.28
53041;BME280;39326;42.650;23.248;2022-10-16T06:51:13;93399.78;;;6.75;85.06
53041;BME280;39326;42.650;23.248;2022-10-16T06:53:42;93400.16;;;6.90;84.83
53041;BME280;39326;42.650;23.248;2022-10-16T06:56:21;93410.47;;;7.07;83.92
53041;BME280;39326;42.650;23.248;2022-10-16T06:58:48;93406.88;;;7.15;84.05
53041;BME280;39326;42.650;23.248;2022-10-16T07:01:15;93408.25;;;7.25;83.58
53041;BME280;39326;42.650;23.248;2022-10-16T07:03:42;93413.13;;;7.23;83.85
53041;BME280;39326;42.650;23.248;2022-10-16T07:06:10;93412.19;;;7.31;83.71
53041;BME280;39326;42.650;23.248;2022-10-16T07:08:38;93410.84;;;7.21;84.10
53041;BME280;39326;42.650;23.248;2022-10-16T07:11:08;93411.84;;;7.17;83.96
53041;BME280;39326;42.650;23.248;2022-10-16T07:13:35;93416.75;;;7.30;84.30
53041;BME280;39326;42.650;23.248;2022-10-16T07:16:12;93420.09;;;7.43;84.06
53041;BME280;39326;42.650;23.248;2022-10-16T07:18:38;93423.66;;;7.63;83.92
53041;BME280;39326;42.650;23.248;2022-10-16T07:23:31;93424.44;;;8.30;82.45
53041;BME280;39326;42.650;23.248;2022-10-16T07:25:56;93426.13;;;8.54;82.10
53041;BME280;39326;42.650;23.248;2022-10-16T07:28:22;93419.91;;;8.46;80.84
53041;BME280;39326;42.650;23.248;2022-10-16T07:30:48;93419.50;;;8.44;80.27
53041;BME280;39326;42.650;23.248;2022-10-16T07:33:13;93423.44;;;8.70;80.16
53041;BME280;39326;42.650;23.248;2022-10-16T07:35:50;93428.75;;;8.70;78.82
53041;BME280;39326;42.650;23.248;2022-10-16T07:38:17;93422.31;;;8.71;79.16
53041;BME280;39326;42.650;23.248;2022-10-16T07:40:42;93426.03;;;8.86;78.69
53041;BME280;39326;42.650;23.248;2022-10-16T07:43:08;93422.94;;;9.03;78.42
53041;BME280;39326;42.650;23.248;2022-10-16T07:45:33;93431.81;;;9.30;77.75
53041;BME280;39326;42.650;23.248;2022-10-16T07:47:59;93423.09;;;9.52;76.29
53041;BME280;39326;42.650;23.248;2022-10-16T07:50:25;93433.75;;;9.75;76.11
53041;BME280;39326;42.650;23.248;2022-10-16T07:52:50;93431.69;;;9.88;75.09
53041;BME280;39326;42.650;23.248;2022-10-16T07:55:16;93437.69;;;10.04;74.22
53041;BME280;39326;42.650;23.248;2022-10-16T07:57:44;93438.56;;;10.12;73.81
53041;BME280;39326;42.650;23.248;2022-10-16T08:00:11;93437.97;;;10.22;73.24
53041;BME280;39326;42.650;23.248;2022-10-16T08:02:41;93441.00;;;10.21;72.70
53041;BME280;39326;42.650;23.248;2022-10-16T08:05:07;93441.50;;;10.30;72.31
53041;BME280;39326;42.650;23.248;2022-10-16T08:07:33;93435.16;;;10.38;71.87
53041;BME280;39326;42.650;23.248;2022-10-16T08:09:58;93435.91;;;10.39;70.87
53041;BME280;39326;42.650;23.248;2022-10-16T08:12:25;93418.41;;;10.68;70.18
53041;BME280;39326;42.650;23.248;2022-10-16T08:14:50;93441.59;;;10.63;69.79
53041;BME280;39326;42.650;23.248;2022-10-16T08:17:16;93440.72;;;10.82;70.08
53041;BME280;39326;42.650;23.248;2022-10-16T08:19:45;93439.72;;;10.94;69.05
53041;BME280;39326;42.650;23.248;2022-10-16T08:22:12;93444.16;;;11.13;68.57
53041;BME280;39326;42.650;23.248;2022-10-16T08:24:37;93440.09;;;11.26;68.14
53041;BME280;39326;42.650;23.248;2022-10-16T08:27:03;93439.34;;;11.26;67.69
53041;BME280;39326;42.650;23.248;2022-10-16T08:29:28;93440.13;;;11.60;67.45
53041;BME280;39326;42.650;23.248;2022-10-16T08:31:54;93440.06;;;11.56;66.22
53041;BME280;39326;42.650;23.248;2022-10-16T08:34:19;93439.50;;;11.77;66.28
53041;BME280;39326;42.650;23.248;2022-10-16T08:36:45;93434.81;;;12.08;66.00
53041;BME280;39326;42.650;23.248;2022-10-16T08:39:10;93431.22;;;12.37;65.26
53041;BME280;39326;42.650;23.248;2022-10-16T08:42:01;93434.28;;;12.39;62.04
53041;BME280;39326;42.650;23.248;2022-10-16T08:50:17;93440.78;;;12.97;62.11
53041;BME280;39326;42.650;23.248;2022-10-16T08:52:45;93442.63;;;12.79;61.33
53041;BME280;39326;42.650;23.248;2022-10-16T08:55:53;93444.97;;;12.94;61.49
53041;BME280;39326;42.650;23.248;2022-10-16T08:58:17;93444.25;;;12.97;60.50
53041;BME280;39326;42.650;23.248;2022-10-16T09:00:46;93445.41;;;13.03;60.00
53041;BME280;39326;42.650;23.248;2022-10-16T09:03:48;93441.66;;;13.19;58.50
53041;BME280;39326;42.650;23.248;2022-10-16T09:12:17;93449.06;;;13.72;57.75
53041;BME280;39326;42.650;23.248;2022-10-16T09:23:12;93439.59;;;14.03;50.07
53041;BME280;39326;42.650;23.248;2022-10-16T09:25:42;93434.59;;;14.48;51.61
53041;BME280;39326;42.650;23.248;2022-10-16T09:28:08;93437.66;;;14.57;50.84
53041;BME280;39326;42.650;23.248;2022-10-16T09:30:35;93447.66;;;14.49;50.25
53041;BME280;39326;42.650;23.248;2022-10-16T09:33:01;93440.38;;;14.39;50.33
53041;BME280;39326;42.650;23.248;2022-10-16T09:35:35;93439.97;;;14.19;48.29
53041;BME280;39326;42.650;23.248;2022-10-16T09:38:02;93433.84;;;14.22;48.96
53041;BME280;39326;42.650;23.248;2022-10-16T09:40:35;93447.63;;;14.46;46.45
53041;BME280;39326;42.650;23.248;2022-10-16T09:43:24;93446.88;;;14.45;48.11
53041;BME280;39326;42.650;23.248;2022-10-16T09:45:55;93443.00;;;15.00;46.46
53041;BME280;39326;42.650;23.248;2022-10-16T09:48:21;93441.47;;;14.99;46.59
53041;BME280;39326;42.650;23.248;2022-10-16T09:51:01;93436.06;;;14.84;45.28
53041;BME280;39326;42.650;23.248;2022-10-16T09:53:43;93431.09;;;14.72;45.99
53041;BME280;39326;42.650;23.248;2022-10-16T09:56:11;93434.16;;;14.85;47.09
53041;BME280;39326;42.650;23.248;2022-10-16T09:58:42;93426.09;;;15.06;46.14
53041;BME280;39326;42.650;23.248;2022-10-16T10:01:14;93429.50;;;15.10;45.93
53041;BME280;39326;42.650;23.248;2022-10-16T10:03:42;93432.59;;;15.09;45.39
53041;BME280;39326;42.650;23.248;2022-10-16T10:06:41;93424.16;;;15.03;43.71
53041;BME280;39326;42.650;23.248;2022-10-16T10:11:39;93431.69;;;15.44;45.09
53041;BME280;39326;42.650;23.248;2022-10-16T10:14:09;93427.75;;;15.59;45.65
53041;BME280;39326;42.650;23.248;2022-10-16T10:16:40;93431.94;;;15.71;45.10
53041;BME280;39326;42.650;23.248;2022-10-16T10:19:14;93426.81;;;15.91;44.53
53041;BME280;39326;42.650;23.248;2022-10-16T10:21:40;93428.00;;;15.93;44.29
53041;BME280;39326;42.650;23.248;2022-10-16T10:24:10;93426.66;;;16.16;43.06
53041;BME280;39326;42.650;23.248;2022-10-16T10:26:37;93421.91;;;16.34;44.31
53041;BME280;39326;42.650;23.248;2022-10-16T10:31:49;93418.31;;;16.48;41.89
53041;BME280;39326;42.650;23.248;2022-10-16T10:39:57;93412.88;;;16.55;40.96
53041;BME280;39326;42.650;23.248;2022-10-16T10:45:26;93393.72;;;16.46;40.37
53041;BME280;39326;42.650;23.248;2022-10-16T10:51:01;93397.06;;;16.61;40.30
53041;BME280;39326;42.650;23.248;2022-10-16T11:02:24;93389.19;;;16.36;41.49
53041;BME280;39326;42.650;23.248;2022-10-16T11:07:28;93382.88;;;16.57;41.23
53041;BME280;39326;42.650;23.248;2022-10-16T11:10:09;93373.66;;;16.54;39.59
53041;BME280;39326;42.650;23.248;2022-10-16T11:12:42;93375.66;;;16.46;40.01
53041;BME280;39326;42.650;23.248;2022-10-16T11:15:21;93377.00;;;16.65;39.98
53041;BME280;39326;42.650;23.248;2022-10-16T11:18:16;93377.00;;;16.65;38.19
53041;BME280;39326;42.650;23.248;2022-10-16T11:20:46;93372.13;;;16.91;39.81
53041;BME280;39326;42.650;23.248;2022-10-16T11:25:48;93372.28;;;17.11;39.75
53041;BME280;39326;42.650;23.248;2022-10-16T11:31:11;93362.56;;;17.20;37.42
53041;BME280;39326;42.650;23.248;2022-10-16T11:33:40;93370.63;;;16.86;37.88
53041;BME280;39326;42.650;23.248;2022-10-16T11:38:52;93369.50;;;17.18;38.47
53041;BME280;39326;42.650;23.248;2022-10-16T11:41:32;93373.47;;;17.40;37.86
53041;BME280;39326;42.650;23.248;2022-10-16T11:44:06;93371.47;;;17.75;37.95
53041;BME280;39326;42.650;23.248;2022-10-16T11:46:38;93380.06;;;17.66;37.35
53041;BME280;39326;42.650;23.248;2022-10-16T11:49:24;93368.41;;;17.73;36.30
53041;BME280;39326;42.650;23.248;2022-10-16T11:54:51;93372.38;;;17.38;36.35
53041;BME280;39326;42.650;23.248;2022-10-16T11:57:24;93371.44;;;17.48;36.61
53041;BME280;39326;42.650;23.248;2022-10-16T11:59:57;93366.47;;;17.73;35.69
53041;BME280;39326;42.650;23.248;2022-10-16T12:08:04;93368.25;;;18.10;34.54
53041;BME280;39326;42.650;23.248;2022-10-16T12:10:31;93366.06;;;18.02;35.39
53041;BME280;39326;42.650;23.248;2022-10-16T12:13:03;93370.25;;;18.06;35.36
53041;BME280;39326;42.650;23.248;2022-10-16T12:15:32;93363.53;;;17.91;35.00
53041;BME280;39326;42.650;23.248;2022-10-16T12:17:58;93365.88;;;17.89;34.82
53041;BME280;39326;42.650;23.248;2022-10-16T12:20:33;93370.56;;;17.54;34.30
53041;BME280;39326;42.650;23.248;2022-10-16T12:23:03;93375.19;;;17.57;34.80
53041;BME280;39326;42.650;23.248;2022-10-16T12:25:35;93371.78;;;18.07;34.05
53041;BME280;39326;42.650;23.248;2022-10-16T12:28:20;93371.59;;;17.95;34.60
53041;BME280;39326;42.650;23.248;2022-10-16T12:30:58;93367.97;;;17.78;33.45
53041;BME280;39326;42.650;23.248;2022-10-16T12:33:32;93370.69;;;17.74;34.83
53041;BME280;39326;42.650;23.248;2022-10-16T12:36:00;93364.63;;;17.67;35.35
53041;BME280;39326;42.650;23.248;2022-10-16T12:38:36;93372.38;;;17.38;35.53
53041;BME280;39326;42.650;23.248;2022-10-16T12:41:05;93374.28;;;17.37;35.35
53041;BME280;39326;42.650;23.248;2022-10-16T12:48:39;93376.63;;;17.62;35.36
53041;BME280;39326;42.650;23.248;2022-10-16T12:51:25;93382.38;;;17.37;35.97
53041;BME280;39326;42.650;23.248;2022-10-16T12:57:09;93381.34;;;17.27;36.73
53041;BME280;39326;42.650;23.248;2022-10-16T13:00:04;93381.78;;;17.22;36.56
53041;BME280;39326;42.650;23.248;2022-10-16T13:05:42;93393.25;;;17.30;35.91
53041;BME280;39326;42.650;23.248;2022-10-16T13:29:33;93387.94;;;16.47;39.02
53041;BME280;39326;42.650;23.248;2022-10-16T13:32:00;93394.44;;;16.53;38.92
53041;BME280;39326;42.650;23.248;2022-10-16T13:34:32;93397.38;;;16.25;39.55
53041;BME280;39326;42.650;23.248;2022-10-16T13:36:57;93396.56;;;16.32;39.08
53041;BME280;39326;42.650;23.248;2022-10-16T13:39:28;93386.69;;;16.18;39.38
53041;BME280;39326;42.650;23.248;2022-10-16T13:44:27;93406.00;;;16.06;39.89
53041;BME280;39326;42.650;23.248;2022-10-16T13:47:01;93408.34;;;16.00;39.73
53041;BME280;39326;42.650;23.248;2022-10-16T13:49:27;93396.50;;;15.80;40.28
53041;BME280;39326;42.650;23.248;2022-10-16T13:51:57;93401.13;;;15.79;40.61
53041;BME280;39326;42.650;23.248;2022-10-16T13:54:24;93398.88;;;15.74;40.36
53041;BME280;39326;42.650;23.248;2022-10-16T13:56:51;93412.28;;;15.78;40.38
53041;BME280;39326;42.650;23.248;2022-10-16T13:59:25;93406.91;;;15.81;40.80
53041;BME280;39326;42.650;23.248;2022-10-16T14:01:53;93405.84;;;15.64;40.98
53041;BME280;39326;42.650;23.248;2022-10-16T14:04:22;93405.13;;;15.57;40.89
53041;BME280;39326;42.650;23.248;2022-10-16T14:06:50;93416.25;;;15.62;41.04
53041;BME280;39326;42.650;23.248;2022-10-16T14:09:27;93407.81;;;15.57;41.08
53041;BME280;39326;42.650;23.248;2022-10-16T14:12:08;93406.34;;;15.49;41.73
53041;BME280;39326;42.650;23.248;2022-10-16T14:14:41;93401.72;;;15.49;41.70
53041;BME280;39326;42.650;23.248;2022-10-16T14:17:31;93410.22;;;15.33;41.48
53041;BME280;39326;42.650;23.248;2022-10-16T14:20:00;93408.72;;;15.29;42.01
53041;BME280;39326;42.650;23.248;2022-10-16T14:22:37;93414.13;;;15.22;42.18
53041;BME280;39326;42.650;23.248;2022-10-16T14:28:20;93419.16;;;15.09;41.58
53041;BME280;39326;42.650;23.248;2022-10-16T14:33:32;93416.91;;;14.93;42.44
53041;BME280;39326;42.650;23.248;2022-10-16T14:38:27;93420.78;;;14.74;42.87
53041;BME280;39326;42.650;23.248;2022-10-16T14:40:53;93416.97;;;14.50;43.33
53041;BME280;39326;42.650;23.248;2022-10-16T14:43:26;93420.03;;;14.49;43.46
53041;BME280;39326;42.650;23.248;2022-10-16T14:45:56;93437.66;;;14.46;43.98
53041;BME280;39326;42.650;23.248;2022-10-16T14:48:22;93429.25;;;14.44;43.89
53041;BME280;39326;42.650;23.248;2022-10-16T14:50:49;93432.69;;;14.41;44.39
53041;BME280;39326;42.650;23.248;2022-10-16T14:53:15;93429.25;;;14.19;45.03
53041;BME280;39326;42.650;23.248;2022-10-16T14:55:42;93438.84;;;14.17;45.73
53041;BME280;39326;42.650;23.248;2022-10-16T14:58:21;93436.13;;;14.02;45.98
53041;BME280;39326;42.650;23.248;2022-10-16T15:00:48;93447.63;;;13.89;46.00
53041;BME280;39326;42.650;23.248;2022-10-16T15:03:14;93452.19;;;13.84;46.16
53041;BME280;39326;42.650;23.248;2022-10-16T15:05:40;93446.03;;;13.77;46.17
53041;BME280;39326;42.650;23.248;2022-10-16T15:08:06;93447.56;;;13.74;46.02
53041;BME280;39326;42.650;23.248;2022-10-16T15:10:37;93453.31;;;13.76;45.91
53041;BME280;39326;42.650;23.248;2022-10-16T15:13:03;93447.88;;;13.48;46.70
53041;BME280;39326;42.650;23.248;2022-10-16T15:15:34;93459.34;;;13.41;45.78